sensor_id;sensor_type;location;lat;lon;timestamp;P1;durP1;ratioP1;P2;durP2;ratioP2
7501;SDS011;3792;47.740;7.606;2022-08-02T00:00:16;3.27;;;2.20;;
7501;SDS011;3792;47.740;7.606;2022-08-02T00:02:44;2.97;;;2.30;;
7501;SDS011;3792;47.740;7.606;2022-08-02T00:05:13;3.83;;;2.23;;
7501;SDS011;3792;47.740;7.606;2022-08-02T00:07:42;2.40;;;2.20;;
7501;SDS011;3792;47.740;7.606;2022-08-02T00:10:10;2.87;;;2.50;;
7501;SDS011;3792;47.740;7.606;2022-08-02T00:12:38;2.93;;;2.67;;
7501;SDS011;3792;47.740;7.606;2022-08-02T00:15:05;2.23;;;2.03;;
7501;SDS011;3792;47.740;7.606;2022-08-02T00:17:34;2.53;;;2.33;;
7501;SDS011;3792;47.740;7.606;2022-08-02T00:20:01;2.33;;;2.13;;
7501;SDS011;3792;47.740;7.606;2022-08-02T00:22:29;4.77;;;2.10;;
7501;SDS011;3792;47.740;7.606;2022-08-02T00:24:57;2.87;;;2.63;;
7501;SDS011;3792;47.740;7.606;2022-08-02T00:27:24;3.87;;;2.50;;
7501;SDS011;3792;47.740;7.606;2022-08-02T00:29:51;2.73;;;2.17;;
7501;SDS011;3792;47.740;7.606;2022-08-02T00:32:19;2.83;;;2.20;;
7501;SDS011;3792;47.740;7.606;2022-08-02T00:34:46;2.50;;;2.30;;
7501;SDS011;3792;47.740;7.606;2022-08-02T00:37:13;3.53;;;2.20;;
7501;SDS011;3792;47.740;7.606;2022-08-02T00:39:41;2.40;;;2.20;;
7501;SDS011;3792;47.740;7.606;2022-08-02T00:42:09;4.33;;;2.50;;
7501;SDS011;3792;47.740;7.606;2022-08-02T00:44:39;2.57;;;2.17;;
7501;SDS011;3792;47.740;7.606;2022-08-02T00:47:06;2.50;;;2.30;;
7501;SDS011;3792;47.740;7.606;2022-08-02T00:49:33;3.37;;;2.00;;
7501;SDS011;3792;47.740;7.606;2022-08-02T00:52:01;3.30;;;2.60;;
7501;SDS011;3792;47.740;7.606;2022-08-02T00:54:28;2.87;;;2.47;;
7501;SDS011;3792;47.740;7.606;2022-08-02T00:56:55;2.60;;;2.40;;
7501;SDS011;3792;47.740;7.606;2022-08-02T00:59:24;3.10;;;2.83;;
7501;SDS011;3792;47.740;7.606;2022-08-02T01:01:51;5.13;;;4.03;;
7501;SDS011;3792;47.740;7.606;2022-08-02T01:04:19;4.70;;;3.60;;
7501;SDS011;3792;47.740;7.606;2022-08-02T01:06:47;3.50;;;2.80;;
7501;SDS011;3792;47.740;7.606;2022-08-02T01:09:14;2.80;;;2.60;;
7501;SDS011;3792;47.740;7.606;2022-08-02T01:11:41;3.00;;;2.77;;
7501;SDS011;3792;47.740;7.606;2022-08-02T01:14:09;2.40;;;2.20;;
7501;SDS011;3792;47.740;7.606;2022-08-02T01:16:42;2.20;;;2.00;;
7501;SDS011;3792;47.740;7.606;2022-08-02T01:19:21;2.27;;;1.93;;
7501;SDS011;3792;47.740;7.606;2022-08-02T01:22:04;2.20;;;2.10;;
7501;SDS011;3792;47.740;7.606;2022-08-02T01:25:04;2.90;;;2.23;;
7501;SDS011;3792;47.740;7.606;2022-08-02T01:27:42;2.23;;;1.80;;
7501;SDS011;3792;47.740;7.606;2022-08-02T01:30:18;3.73;;;2.37;;
7501;SDS011;3792;47.740;7.606;2022-08-02T01:32:47;2.17;;;1.70;;
7501;SDS011;3792;47.740;7.606;2022-08-02T01:35:19;2.47;;;2.20;;
7501;SDS011;3792;47.740;7.606;2022-08-02T01:37:50;2.20;;;1.93;;
7501;SDS011;3792;47.740;7.606;2022-08-02T01:40:22;2.23;;;2.03;;
7501;SDS011;3792;47.740;7.606;2022-08-02T01:42:54;2.27;;;2.07;;
7501;SDS011;3792;47.740;7.606;2022-08-02T01:45:24;2.57;;;2.37;;
7501;SDS011;3792;47.740;7.606;2022-08-02T01:47:55;2.90;;;2.10;;
7501;SDS011;3792;47.740;7.606;2022-08-02T01:50:25;3.33;;;2.10;;
7501;SDS011;3792;47.740;7.606;2022-08-02T01:52:56;2.60;;;2.33;;
7501;SDS011;3792;47.740;7.606;2022-08-02T01:55:30;2.77;;;1.87;;
7501;SDS011;3792;47.740;7.606;2022-08-02T01:58:03;2.10;;;1.90;;
7501;SDS011;3792;47.740;7.606;2022-08-02T02:00:35;2.60;;;2.10;;
7501;SDS011;3792;47.740;7.606;2022-08-02T02:03:05;2.47;;;2.27;;
7501;SDS011;3792;47.740;7.606;2022-08-02T02:05:38;2.10;;;2.00;;
7501;SDS011;3792;47.740;7.606;2022-08-02T02:08:07;2.17;;;1.97;;
7501;SDS011;3792;47.740;7.606;2022-08-02T02:10:36;3.70;;;2.30;;
7501;SDS011;3792;47.740;7.606;2022-08-02T02:13:05;1.83;;;1.73;;
7501;SDS011;3792;47.740;7.606;2022-08-02T02:15:39;2.30;;;2.07;;
7501;SDS011;3792;47.740;7.606;2022-08-02T02:18:08;4.30;;;1.93;;
7501;SDS011;3792;47.740;7.606;2022-08-02T02:20:38;3.00;;;1.93;;
7501;SDS011;3792;47.740;7.606;2022-08-02T02:23:05;2.60;;;2.20;;
7501;SDS011;3792;47.740;7.606;2022-08-02T02:25:32;3.40;;;1.97;;
7501;SDS011;3792;47.740;7.606;2022-08-02T02:28:02;1.93;;;1.70;;
7501;SDS011;3792;47.740;7.606;2022-08-02T02:30:31;2.70;;;2.10;;
7501;SDS011;3792;47.740;7.606;2022-08-02T02:33:01;2.40;;;2.20;;
7501;SDS011;3792;47.740;7.606;2022-08-02T02:35:33;3.67;;;2.00;;
7501;SDS011;3792;47.740;7.606;2022-08-02T02:38:03;2.20;;;2.07;;
7501;SDS011;3792;47.740;7.606;2022-08-02T02:40:31;2.07;;;1.97;;
7501;SDS011;3792;47.740;7.606;2022-08-02T02:43:01;3.10;;;2.00;;
7501;SDS011;3792;47.740;7.606;2022-08-02T02:45:30;2.03;;;1.93;;
7501;SDS011;3792;47.740;7.606;2022-08-02T02:47:58;2.47;;;1.90;;
7501;SDS011;3792;47.740;7.606;2022-08-02T02:50:28;3.33;;;2.40;;
7501;SDS011;3792;47.740;7.606;2022-08-02T02:52:56;3.37;;;2.10;;
7501;SDS011;3792;47.740;7.606;2022-08-02T02:55:24;5.57;;;2.20;;
7501;SDS011;3792;47.740;7.606;2022-08-02T02:57:52;2.00;;;1.70;;
7501;SDS011;3792;47.740;7.606;2022-08-02T03:00:20;2.13;;;1.87;;
7501;SDS011;3792;47.740;7.606;2022-08-02T03:03:08;2.40;;;2.17;;
7501;SDS011;3792;47.740;7.606;2022-08-02T03:05:37;2.00;;;1.90;;
7501;SDS011;3792;47.740;7.606;2022-08-02T03:08:04;2.67;;;2.00;;
7501;SDS011;3792;47.740;7.606;2022-08-02T03:10:31;3.87;;;1.93;;
7501;SDS011;3792;47.740;7.606;2022-08-02T03:12:59;2.23;;;1.80;;
7501;SDS011;3792;47.740;7.606;2022-08-02T03:15:26;2.17;;;1.80;;
7501;SDS011;3792;47.740;7.606;2022-08-02T03:17:55;3.40;;;1.90;;
7501;SDS011;3792;47.740;7.606;2022-08-02T03:20:22;2.93;;;1.90;;
7501;SDS011;3792;47.740;7.606;2022-08-02T03:22:51;2.10;;;1.93;;
7501;SDS011;3792;47.740;7.606;2022-08-02T03:25:18;2.20;;;1.93;;
7501;SDS011;3792;47.740;7.606;2022-08-02T03:27:45;5.33;;;2.00;;
7501;SDS011;3792;47.740;7.606;2022-08-02T03:30:13;2.47;;;2.27;;
7501;SDS011;3792;47.740;7.606;2022-08-02T03:32:40;2.07;;;1.97;;
7501;SDS011;3792;47.740;7.606;2022-08-02T03:35:11;1.97;;;1.87;;
7501;SDS011;3792;47.740;7.606;2022-08-02T03:37:40;2.93;;;1.83;;
7501;SDS011;3792;47.740;7.606;2022-08-02T03:40:10;2.27;;;1.93;;
7501;SDS011;3792;47.740;7.606;2022-08-02T03:42:38;1.97;;;1.77;;
7501;SDS011;3792;47.740;7.606;2022-08-02T03:45:07;2.10;;;1.93;;
7501;SDS011;3792;47.740;7.606;2022-08-02T03:47:36;3.63;;;2.00;;
7501;SDS011;3792;47.740;7.606;2022-08-02T03:50:04;2.73;;;1.80;;
7501;SDS011;3792;47.740;7.606;2022-08-02T03:52:32;2.30;;;1.90;;
7501;SDS011;3792;47.740;7.606;2022-08-02T03:55:00;2.80;;;2.00;;
7501;SDS011;3792;47.740;7.606;2022-08-02T03:57:28;2.27;;;2.07;;
7501;SDS011;3792;47.740;7.606;2022-08-02T03:59:56;2.20;;;1.90;;
7501;SDS011;3792;47.740;7.606;2022-08-02T04:02:23;2.27;;;2.07;;
7501;SDS011;3792;47.740;7.606;2022-08-02T04:04:50;2.37;;;2.17;;
7501;SDS011;3792;47.740;7.606;2022-08-02T04:07:17;2.20;;;2.00;;
7501;SDS011;3792;47.740;7.606;2022-08-02T04:09:44;3.00;;;2.30;;
7501;SDS011;3792;47.740;7.606;2022-08-02T04:12:11;4.13;;;1.90;;
7501;SDS011;3792;47.740;7.606;2022-08-02T04:14:39;1.90;;;1.80;;
7501;SDS011;3792;47.740;7.606;2022-08-02T04:17:08;3.10;;;2.10;;
7501;SDS011;3792;47.740;7.606;2022-08-02T04:19:36;2.30;;;2.10;;
7501;SDS011;3792;47.740;7.606;2022-08-02T04:22:06;3.20;;;1.90;;
7501;SDS011;3792;47.740;7.606;2022-08-02T04:24:40;2.50;;;2.20;;
7501;SDS011;3792;47.740;7.606;2022-08-02T04:27:12;3.20;;;2.30;;
7501;SDS011;3792;47.740;7.606;2022-08-02T04:29:42;3.33;;;2.17;;
7501;SDS011;3792;47.740;7.606;2022-08-02T04:32:10;1.90;;;1.80;;
7501;SDS011;3792;47.740;7.606;2022-08-02T04:34:38;2.43;;;2.23;;
7501;SDS011;3792;47.740;7.606;2022-08-02T04:37:05;2.50;;;2.30;;
7501;SDS011;3792;47.740;7.606;2022-08-02T04:39:32;2.57;;;2.00;;
7501;SDS011;3792;47.740;7.606;2022-08-02T04:42:00;2.40;;;2.20;;
7501;SDS011;3792;47.740;7.606;2022-08-02T04:44:27;4.33;;;2.50;;
7501;SDS011;3792;47.740;7.606;2022-08-02T04:46:55;2.73;;;2.00;;
7501;SDS011;3792;47.740;7.606;2022-08-02T04:49:24;2.43;;;2.00;;
7501;SDS011;3792;47.740;7.606;2022-08-02T04:51:51;2.40;;;2.20;;
7501;SDS011;3792;47.740;7.606;2022-08-02T04:54:19;2.90;;;1.73;;
7501;SDS011;3792;47.740;7.606;2022-08-02T04:56:46;3.47;;;2.23;;
7501;SDS011;3792;47.740;7.606;2022-08-02T04:59:13;3.33;;;2.00;;
7501;SDS011;3792;47.740;7.606;2022-08-02T05:01:40;3.87;;;1.90;;
7501;SDS011;3792;47.740;7.606;2022-08-02T05:04:09;3.47;;;2.20;;
7501;SDS011;3792;47.740;7.606;2022-08-02T05:06:36;6.87;;;2.27;;
7501;SDS011;3792;47.740;7.606;2022-08-02T05:09:03;2.43;;;2.23;;
7501;SDS011;3792;47.740;7.606;2022-08-02T05:11:30;2.53;;;2.33;;
7501;SDS011;3792;47.740;7.606;2022-08-02T05:14:01;2.17;;;2.00;;
7501;SDS011;3792;47.740;7.606;2022-08-02T05:16:28;3.47;;;2.73;;
7501;SDS011;3792;47.740;7.606;2022-08-02T05:18:55;3.50;;;1.97;;
7501;SDS011;3792;47.740;7.606;2022-08-02T05:21:24;3.03;;;2.47;;
7501;SDS011;3792;47.740;7.606;2022-08-02T05:23:51;2.57;;;2.17;;
7501;SDS011;3792;47.740;7.606;2022-08-02T05:26:18;3.07;;;1.90;;
7501;SDS011;3792;47.740;7.606;2022-08-02T05:28:45;1.97;;;1.87;;
7501;SDS011;3792;47.740;7.606;2022-08-02T05:31:12;2.23;;;2.03;;
7501;SDS011;3792;47.740;7.606;2022-08-02T05:33:39;3.17;;;2.13;;
7501;SDS011;3792;47.740;7.606;2022-08-02T05:36:06;4.03;;;2.27;;
7501;SDS011;3792;47.740;7.606;2022-08-02T05:38:35;2.77;;;1.87;;
7501;SDS011;3792;47.740;7.606;2022-08-02T05:41:02;2.67;;;2.47;;
7501;SDS011;3792;47.740;7.606;2022-08-02T05:43:30;2.93;;;2.30;;
7501;SDS011;3792;47.740;7.606;2022-08-02T05:45:57;3.20;;;2.07;;
7501;SDS011;3792;47.740;7.606;2022-08-02T05:48:24;2.47;;;2.27;;
7501;SDS011;3792;47.740;7.606;2022-08-02T05:50:53;3.73;;;2.60;;
7501;SDS011;3792;47.740;7.606;2022-08-02T05:53:27;4.97;;;2.53;;
7501;SDS011;3792;47.740;7.606;2022-08-02T05:56:07;4.63;;;3.43;;
7501;SDS011;3792;47.740;7.606;2022-08-02T05:58:42;2.93;;;2.60;;
7501;SDS011;3792;47.740;7.606;2022-08-02T06:01:17;3.00;;;2.50;;
7501;SDS011;3792;47.740;7.606;2022-08-02T06:03:52;2.47;;;2.27;;
7501;SDS011;3792;47.740;7.606;2022-08-02T06:06:22;2.73;;;2.40;;
7501;SDS011;3792;47.740;7.606;2022-08-02T06:08:53;2.73;;;2.40;;
7501;SDS011;3792;47.740;7.606;2022-08-02T06:11:28;2.67;;;2.47;;
7501;SDS011;3792;47.740;7.606;2022-08-02T06:14:01;3.07;;;2.83;;
7501;SDS011;3792;47.740;7.606;2022-08-02T06:16:29;2.80;;;2.60;;
7501;SDS011;3792;47.740;7.606;2022-08-02T06:18:57;3.80;;;2.77;;
7501;SDS011;3792;47.740;7.606;2022-08-02T06:21:24;3.60;;;3.00;;
7501;SDS011;3792;47.740;7.606;2022-08-02T06:23:52;2.50;;;2.30;;
7501;SDS011;3792;47.740;7.606;2022-08-02T06:26:23;6.33;;;2.90;;
7501;SDS011;3792;47.740;7.606;2022-08-02T06:28:52;2.83;;;2.63;;
7501;SDS011;3792;47.740;7.606;2022-08-02T06:31:20;3.10;;;2.30;;
7501;SDS011;3792;47.740;7.606;2022-08-02T06:33:48;3.53;;;2.53;;
7501;SDS011;3792;47.740;7.606;2022-08-02T06:36:15;7.47;;;3.10;;
7501;SDS011;3792;47.740;7.606;2022-08-02T06:38:48;7.07;;;3.10;;
7501;SDS011;3792;47.740;7.606;2022-08-02T06:41:20;3.43;;;3.03;;
7501;SDS011;3792;47.740;7.606;2022-08-02T06:43:52;4.07;;;3.07;;
7501;SDS011;3792;47.740;7.606;2022-08-02T06:46:20;5.83;;;3.17;;
7501;SDS011;3792;47.740;7.606;2022-08-02T06:48:47;3.07;;;2.63;;
7501;SDS011;3792;47.740;7.606;2022-08-02T06:51:14;3.30;;;3.00;;
7501;SDS011;3792;47.740;7.606;2022-08-02T06:53:42;3.53;;;3.20;;
7501;SDS011;3792;47.740;7.606;2022-08-02T06:56:09;3.30;;;3.00;;
7501;SDS011;3792;47.740;7.606;2022-08-02T06:58:37;3.00;;;2.70;;
7501;SDS011;3792;47.740;7.606;2022-08-02T07:01:05;3.10;;;2.80;;
7501;SDS011;3792;47.740;7.606;2022-08-02T07:03:33;4.13;;;3.17;;
7501;SDS011;3792;47.740;7.606;2022-08-02T07:06:02;4.23;;;3.00;;
7501;SDS011;3792;47.740;7.606;2022-08-02T07:08:29;3.20;;;2.90;;
7501;SDS011;3792;47.740;7.606;2022-08-02T07:10:57;5.10;;;3.07;;
7501;SDS011;3792;47.740;7.606;2022-08-02T07:13:25;3.73;;;2.83;;
7501;SDS011;3792;47.740;7.606;2022-08-02T07:15:54;4.43;;;3.00;;
7501;SDS011;3792;47.740;7.606;2022-08-02T07:18:21;5.17;;;3.30;;
7501;SDS011;3792;47.740;7.606;2022-08-02T07:20:49;5.77;;;3.00;;
7501;SDS011;3792;47.740;7.606;2022-08-02T07:23:16;3.20;;;2.90;;
7501;SDS011;3792;47.740;7.606;2022-08-02T07:25:43;2.97;;;2.67;;
7501;SDS011;3792;47.740;7.606;2022-08-02T07:28:11;2.73;;;2.53;;
7501;SDS011;3792;47.740;7.606;2022-08-02T07:30:39;4.63;;;2.80;;
7501;SDS011;3792;47.740;7.606;2022-08-02T07:33:08;5.27;;;3.50;;
7501;SDS011;3792;47.740;7.606;2022-08-02T07:35:36;4.27;;;3.20;;
7501;SDS011;3792;47.740;7.606;2022-08-02T07:38:03;5.43;;;3.10;;
7501;SDS011;3792;47.740;7.606;2022-08-02T07:40:30;4.13;;;2.90;;
7501;SDS011;3792;47.740;7.606;2022-08-02T07:42:57;3.40;;;2.90;;
7501;SDS011;3792;47.740;7.606;2022-08-02T07:45:24;3.23;;;2.90;;
7501;SDS011;3792;47.740;7.606;2022-08-02T07:47:52;2.87;;;2.57;;
7501;SDS011;3792;47.740;7.606;2022-08-02T07:50:22;2.87;;;2.67;;
7501;SDS011;3792;47.740;7.606;2022-08-02T07:52:49;3.40;;;3.00;;
7501;SDS011;3792;47.740;7.606;2022-08-02T07:55:17;5.13;;;3.00;;
7501;SDS011;3792;47.740;7.606;2022-08-02T07:57:45;3.10;;;2.50;;
7501;SDS011;3792;47.740;7.606;2022-08-02T08:00:13;4.17;;;3.03;;
7501;SDS011;3792;47.740;7.606;2022-08-02T08:02:41;4.47;;;3.07;;
7501;SDS011;3792;47.740;7.606;2022-08-02T08:05:08;3.20;;;2.80;;
7501;SDS011;3792;47.740;7.606;2022-08-02T08:07:37;4.43;;;3.60;;
7501;SDS011;3792;47.740;7.606;2022-08-02T08:10:05;6.27;;;3.00;;
7501;SDS011;3792;47.740;7.606;2022-08-02T08:12:33;3.00;;;2.70;;
7501;SDS011;3792;47.740;7.606;2022-08-02T08:15:00;5.57;;;3.10;;
7501;SDS011;3792;47.740;7.606;2022-08-02T08:17:27;4.10;;;2.63;;
7501;SDS011;3792;47.740;7.606;2022-08-02T08:19:54;4.53;;;3.03;;
7501;SDS011;3792;47.740;7.606;2022-08-02T08:22:22;4.80;;;2.90;;
7501;SDS011;3792;47.740;7.606;2022-08-02T08:24:51;4.93;;;3.03;;
7501;SDS011;3792;47.740;7.606;2022-08-02T08:27:18;2.53;;;2.30;;
7501;SDS011;3792;47.740;7.606;2022-08-02T08:29:47;2.93;;;2.43;;
7501;SDS011;3792;47.740;7.606;2022-08-02T08:32:14;3.67;;;2.13;;
7501;SDS011;3792;47.740;7.606;2022-08-02T08:34:41;3.47;;;2.63;;
7501;SDS011;3792;47.740;7.606;2022-08-02T08:37:08;5.60;;;2.10;;
7501;SDS011;3792;47.740;7.606;2022-08-02T08:39:35;3.40;;;2.30;;
7501;SDS011;3792;47.740;7.606;2022-08-02T08:42:05;5.93;;;2.20;;
7501;SDS011;3792;47.740;7.606;2022-08-02T08:44:33;2.90;;;2.40;;
7501;SDS011;3792;47.740;7.606;2022-08-02T08:47:00;2.40;;;2.20;;
7501;SDS011;3792;47.740;7.606;2022-08-02T08:49:30;3.50;;;2.40;;
7501;SDS011;3792;47.740;7.606;2022-08-02T08:52:00;3.73;;;2.30;;
7501;SDS011;3792;47.740;7.606;2022-08-02T08:54:31;4.27;;;2.30;;
7501;SDS011;3792;47.740;7.606;2022-08-02T08:56:59;3.40;;;2.53;;
7501;SDS011;3792;47.740;7.606;2022-08-02T08:59:30;4.70;;;2.43;;
7501;SDS011;3792;47.740;7.606;2022-08-02T09:01:58;3.23;;;2.40;;
7501;SDS011;3792;47.740;7.606;2022-08-02T09:04:26;7.57;;;2.60;;
7501;SDS011;3792;47.740;7.606;2022-08-02T09:06:54;5.57;;;2.80;;
7501;SDS011;3792;47.740;7.606;2022-08-02T09:09:21;2.40;;;2.20;;
7501;SDS011;3792;47.740;7.606;2022-08-02T09:11:48;5.83;;;2.93;;
7501;SDS011;3792;47.740;7.606;2022-08-02T09:14:24;8.97;;;2.67;;
7501;SDS011;3792;47.740;7.606;2022-08-02T09:16:54;4.00;;;2.20;;
7501;SDS011;3792;47.740;7.606;2022-08-02T09:19:31;2.30;;;1.97;;
7501;SDS011;3792;47.740;7.606;2022-08-02T09:22:01;3.33;;;2.30;;
7501;SDS011;3792;47.740;7.606;2022-08-02T09:24:31;2.03;;;1.90;;
7501;SDS011;3792;47.740;7.606;2022-08-02T09:27:09;5.10;;;2.73;;
7501;SDS011;3792;47.740;7.606;2022-08-02T09:29:37;4.60;;;2.60;;
7501;SDS011;3792;47.740;7.606;2022-08-02T09:32:06;2.70;;;2.43;;
7501;SDS011;3792;47.740;7.606;2022-08-02T09:34:43;3.37;;;2.33;;
7501;SDS011;3792;47.740;7.606;2022-08-02T09:37:20;4.73;;;2.50;;
7501;SDS011;3792;47.740;7.606;2022-08-02T09:39:48;3.60;;;2.40;;
7501;SDS011;3792;47.740;7.606;2022-08-02T09:42:15;5.57;;;2.40;;
7501;SDS011;3792;47.740;7.606;2022-08-02T09:44:51;5.93;;;2.60;;
7501;SDS011;3792;47.740;7.606;2022-08-02T09:47:20;2.33;;;1.87;;
7501;SDS011;3792;47.740;7.606;2022-08-02T09:49:48;5.10;;;2.60;;
7501;SDS011;3792;47.740;7.606;2022-08-02T09:52:20;3.00;;;2.50;;
7501;SDS011;3792;47.740;7.606;2022-08-02T09:54:48;3.13;;;2.57;;
7501;SDS011;3792;47.740;7.606;2022-08-02T09:57:24;5.37;;;2.50;;
7501;SDS011;3792;47.740;7.606;2022-08-02T09:59:55;5.90;;;2.30;;
7501;SDS011;3792;47.740;7.606;2022-08-02T10:02:26;4.60;;;2.70;;
7501;SDS011;3792;47.740;7.606;2022-08-02T10:04:53;2.40;;;2.20;;
7501;SDS011;3792;47.740;7.606;2022-08-02T10:07:21;2.77;;;2.30;;
7501;SDS011;3792;47.740;7.606;2022-08-02T10:09:49;6.57;;;2.40;;
7501;SDS011;3792;47.740;7.606;2022-08-02T10:12:17;2.83;;;2.23;;
7501;SDS011;3792;47.740;7.606;2022-08-02T10:14:46;2.57;;;2.37;;
7501;SDS011;3792;47.740;7.606;2022-08-02T10:17:16;2.23;;;2.10;;
7501;SDS011;3792;47.740;7.606;2022-08-02T10:19:45;4.83;;;2.30;;
7501;SDS011;3792;47.740;7.606;2022-08-02T10:22:13;4.20;;;2.40;;
7501;SDS011;3792;47.740;7.606;2022-08-02T10:24:41;3.30;;;1.90;;
7501;SDS011;3792;47.740;7.606;2022-08-02T10:27:12;3.03;;;2.13;;
7501;SDS011;3792;47.740;7.606;2022-08-02T10:29:41;2.17;;;1.97;;
7501;SDS011;3792;47.740;7.606;2022-08-02T10:32:12;2.00;;;1.80;;
7501;SDS011;3792;47.740;7.606;2022-08-02T10:34:47;3.07;;;2.27;;
7501;SDS011;3792;47.740;7.606;2022-08-02T10:37:19;2.20;;;2.00;;
7501;SDS011;3792;47.740;7.606;2022-08-02T10:39:48;2.93;;;1.97;;
7501;SDS011;3792;47.740;7.606;2022-08-02T10:45:10;2.17;;;2.03;;
7501;SDS011;3792;47.740;7.606;2022-08-02T10:47:40;3.50;;;1.90;;
7501;SDS011;3792;47.740;7.606;2022-08-02T10:53:21;2.07;;;1.77;;
7501;SDS011;3792;47.740;7.606;2022-08-02T10:55:49;2.47;;;1.73;;
7501;SDS011;3792;47.740;7.606;2022-08-02T10:58:16;3.50;;;2.10;;
7501;SDS011;3792;47.740;7.606;2022-08-02T11:00:44;2.87;;;2.00;;
7501;SDS011;3792;47.740;7.606;2022-08-02T11:06:02;5.37;;;4.97;;
7501;SDS011;3792;47.740;7.606;2022-08-02T11:08:31;2.40;;;2.17;;
7501;SDS011;3792;47.740;7.606;2022-08-02T11:10:59;3.17;;;2.40;;
7501;SDS011;3792;47.740;7.606;2022-08-02T11:13:26;2.60;;;1.77;;
7501;SDS011;3792;47.740;7.606;2022-08-02T11:15:58;4.57;;;1.97;;
7501;SDS011;3792;47.740;7.606;2022-08-02T11:21:31;1.77;;;1.67;;
7501;SDS011;3792;47.740;7.606;2022-08-02T11:26:52;5.63;;;2.20;;
7501;SDS011;3792;47.740;7.606;2022-08-02T11:29:20;2.07;;;1.80;;
7501;SDS011;3792;47.740;7.606;2022-08-02T11:31:47;3.17;;;1.77;;
7501;SDS011;3792;47.740;7.606;2022-08-02T11:34:15;2.77;;;1.60;;
7501;SDS011;3792;47.740;7.606;2022-08-02T11:36:48;3.87;;;1.80;;
7501;SDS011;3792;47.740;7.606;2022-08-02T11:39:17;1.80;;;1.70;;
7501;SDS011;3792;47.740;7.606;2022-08-02T11:41:50;3.13;;;1.87;;
7501;SDS011;3792;47.740;7.606;2022-08-02T11:44:18;3.53;;;1.90;;
7501;SDS011;3792;47.740;7.606;2022-08-02T11:46:52;2.17;;;1.87;;
7501;SDS011;3792;47.740;7.606;2022-08-02T11:49:20;2.20;;;2.00;;
7501;SDS011;3792;47.740;7.606;2022-08-02T11:51:53;3.00;;;1.70;;
7501;SDS011;3792;47.740;7.606;2022-08-02T11:54:22;4.03;;;1.70;;
7501;SDS011;3792;47.740;7.606;2022-08-02T11:56:53;2.00;;;1.73;;
7501;SDS011;3792;47.740;7.606;2022-08-02T11:59:20;4.20;;;1.53;;
7501;SDS011;3792;47.740;7.606;2022-08-02T12:01:47;1.97;;;1.87;;
7501;SDS011;3792;47.740;7.606;2022-08-02T12:04:15;4.20;;;2.00;;
7501;SDS011;3792;47.740;7.606;2022-08-02T12:06:43;2.33;;;2.10;;
7501;SDS011;3792;47.740;7.606;2022-08-02T12:09:21;2.40;;;1.80;;
7501;SDS011;3792;47.740;7.606;2022-08-02T12:11:48;3.10;;;2.03;;
7501;SDS011;3792;47.740;7.606;2022-08-02T12:14:16;1.70;;;1.60;;
7501;SDS011;3792;47.740;7.606;2022-08-02T12:16:43;2.17;;;1.60;;
7501;SDS011;3792;47.740;7.606;2022-08-02T12:19:28;2.13;;;1.60;;
7501;SDS011;3792;47.740;7.606;2022-08-02T12:24:51;2.40;;;1.53;;
7501;SDS011;3792;47.740;7.606;2022-08-02T12:27:29;2.83;;;1.63;;
7501;SDS011;3792;47.740;7.606;2022-08-02T12:29:58;4.47;;;1.70;;
7501;SDS011;3792;47.740;7.606;2022-08-02T12:32:27;1.40;;;1.30;;
7501;SDS011;3792;47.740;7.606;2022-08-02T12:35:08;1.63;;;1.53;;
7501;SDS011;3792;47.740;7.606;2022-08-02T12:37:39;2.07;;;1.57;;
7501;SDS011;3792;47.740;7.606;2022-08-02T12:40:17;2.30;;;1.57;;
7501;SDS011;3792;47.740;7.606;2022-08-02T12:42:49;1.77;;;1.40;;
7501;SDS011;3792;47.740;7.606;2022-08-02T12:45:17;1.40;;;1.30;;
7501;SDS011;3792;47.740;7.606;2022-08-02T12:47:45;1.50;;;1.40;;
7501;SDS011;3792;47.740;7.606;2022-08-02T12:50:15;1.30;;;1.20;;
7501;SDS011;3792;47.740;7.606;2022-08-02T12:52:46;1.90;;;1.20;;
7501;SDS011;3792;47.740;7.606;2022-08-02T12:55:18;3.50;;;1.40;;
7501;SDS011;3792;47.740;7.606;2022-08-02T12:57:53;2.10;;;1.30;;
7501;SDS011;3792;47.740;7.606;2022-08-02T13:00:24;3.53;;;1.27;;
7501;SDS011;3792;47.740;7.606;2022-08-02T13:02:53;4.10;;;1.77;;
7501;SDS011;3792;47.740;7.606;2022-08-02T13:05:20;2.20;;;1.30;;
7501;SDS011;3792;47.740;7.606;2022-08-02T13:07:49;1.43;;;1.10;;
7501;SDS011;3792;47.740;7.606;2022-08-02T13:10:17;1.87;;;1.03;;
7501;SDS011;3792;47.740;7.606;2022-08-02T13:12:45;1.60;;;1.27;;
7501;SDS011;3792;47.740;7.606;2022-08-02T13:15:12;3.70;;;1.10;;
7501;SDS011;3792;47.740;7.606;2022-08-02T13:17:40;1.40;;;1.00;;
7501;SDS011;3792;47.740;7.606;2022-08-02T13:20:08;1.00;;;1.00;;
7501;SDS011;3792;47.740;7.606;2022-08-02T13:22:36;2.73;;;1.00;;
7501;SDS011;3792;47.740;7.606;2022-08-02T13:25:05;0.90;;;0.90;;
7501;SDS011;3792;47.740;7.606;2022-08-02T13:27:32;1.33;;;1.20;;
7501;SDS011;3792;47.740;7.606;2022-08-02T13:29:59;2.00;;;1.13;;
7501;SDS011;3792;47.740;7.606;2022-08-02T13:32:28;0.70;;;0.70;;
7501;SDS011;3792;47.740;7.606;2022-08-02T13:34:55;1.53;;;0.70;;
7501;SDS011;3792;47.740;7.606;2022-08-02T13:37:23;3.13;;;1.10;;
7501;SDS011;3792;47.740;7.606;2022-08-02T13:39:50;1.30;;;1.20;;
7501;SDS011;3792;47.740;7.606;2022-08-02T13:42:19;0.83;;;0.80;;
7501;SDS011;3792;47.740;7.606;2022-08-02T13:44:47;1.00;;;0.90;;
7501;SDS011;3792;47.740;7.606;2022-08-02T13:47:14;0.80;;;0.80;;
7501;SDS011;3792;47.740;7.606;2022-08-02T13:49:41;3.13;;;1.00;;
7501;SDS011;3792;47.740;7.606;2022-08-02T13:52:08;0.90;;;0.80;;
7501;SDS011;3792;47.740;7.606;2022-08-02T13:54:36;1.00;;;1.00;;
7501;SDS011;3792;47.740;7.606;2022-08-02T13:57:05;0.87;;;0.80;;
7501;SDS011;3792;47.740;7.606;2022-08-02T13:59:34;2.37;;;0.90;;
7501;SDS011;3792;47.740;7.606;2022-08-02T14:02:01;0.93;;;0.93;;
7501;SDS011;3792;47.740;7.606;2022-08-02T14:04:28;0.90;;;0.90;;
7501;SDS011;3792;47.740;7.606;2022-08-02T14:06:56;1.83;;;0.80;;
7501;SDS011;3792;47.740;7.606;2022-08-02T14:09:23;0.73;;;0.63;;
7501;SDS011;3792;47.740;7.606;2022-08-02T14:11:51;0.87;;;0.87;;
7501;SDS011;3792;47.740;7.606;2022-08-02T14:14:19;0.87;;;0.87;;
7501;SDS011;3792;47.740;7.606;2022-08-02T14:16:47;4.73;;;0.90;;
7501;SDS011;3792;47.740;7.606;2022-08-02T14:19:14;0.70;;;0.70;;
7501;SDS011;3792;47.740;7.606;2022-08-02T14:21:41;1.33;;;0.60;;
7501;SDS011;3792;47.740;7.606;2022-08-02T14:24:08;1.73;;;0.63;;
7501;SDS011;3792;47.740;7.606;2022-08-02T14:26:35;1.57;;;0.87;;
7501;SDS011;3792;47.740;7.606;2022-08-02T14:29:02;0.70;;;0.70;;
7501;SDS011;3792;47.740;7.606;2022-08-02T14:31:29;0.73;;;0.70;;
7501;SDS011;3792;47.740;7.606;2022-08-02T14:33:58;1.03;;;0.80;;
7501;SDS011;3792;47.740;7.606;2022-08-02T14:36:25;0.83;;;0.83;;
7501;SDS011;3792;47.740;7.606;2022-08-02T14:38:52;0.73;;;0.73;;
7501;SDS011;3792;47.740;7.606;2022-08-02T14:41:19;0.90;;;0.80;;
7501;SDS011;3792;47.740;7.606;2022-08-02T14:43:46;0.83;;;0.80;;
7501;SDS011;3792;47.740;7.606;2022-08-02T14:46:33;1.07;;;0.60;;
7501;SDS011;3792;47.740;7.606;2022-08-02T14:49:06;3.87;;;0.73;;
7501;SDS011;3792;47.740;7.606;2022-08-02T14:51:34;0.73;;;0.50;;
7501;SDS011;3792;47.740;7.606;2022-08-02T14:54:03;0.53;;;0.53;;
7501;SDS011;3792;47.740;7.606;2022-08-02T14:56:31;0.93;;;0.73;;
7501;SDS011;3792;47.740;7.606;2022-08-02T14:58:59;0.93;;;0.70;;
7501;SDS011;3792;47.740;7.606;2022-08-02T15:01:26;0.60;;;0.60;;
7501;SDS011;3792;47.740;7.606;2022-08-02T15:03:53;0.60;;;0.60;;
7501;SDS011;3792;47.740;7.606;2022-08-02T15:06:21;1.53;;;1.03;;
7501;SDS011;3792;47.740;7.606;2022-08-02T15:08:50;2.53;;;0.93;;
7501;SDS011;3792;47.740;7.606;2022-08-02T15:11:17;0.87;;;0.83;;
7501;SDS011;3792;47.740;7.606;2022-08-02T15:13:44;0.90;;;0.90;;
7501;SDS011;3792;47.740;7.606;2022-08-02T15:16:11;3.27;;;1.00;;
7501;SDS011;3792;47.740;7.606;2022-08-02T15:18:39;1.17;;;0.60;;
7501;SDS011;3792;47.740;7.606;2022-08-02T15:21:06;0.77;;;0.77;;
7501;SDS011;3792;47.740;7.606;2022-08-02T15:23:35;1.07;;;0.80;;
7501;SDS011;3792;47.740;7.606;2022-08-02T15:26:02;3.53;;;0.73;;
7501;SDS011;3792;47.740;7.606;2022-08-02T15:28:30;0.83;;;0.67;;
7501;SDS011;3792;47.740;7.606;2022-08-02T15:30:57;0.93;;;0.80;;
7501;SDS011;3792;47.740;7.606;2022-08-02T15:33:24;1.90;;;0.90;;
7501;SDS011;3792;47.740;7.606;2022-08-02T15:35:52;1.57;;;0.80;;
7501;SDS011;3792;47.740;7.606;2022-08-02T15:38:19;0.97;;;0.97;;
7501;SDS011;3792;47.740;7.606;2022-08-02T15:40:48;0.80;;;0.80;;
7501;SDS011;3792;47.740;7.606;2022-08-02T15:43:15;0.90;;;0.90;;